Time;durP1;ratioP1;P1;durP2;ratioP2;P2;SDS_P1;SDS_P2;PMS_P1;PMS_P2;Temp;Humidity;BMP_temperature;BMP_pressure;BME280_temperature;BME280_humidity;BME280_pressure;Samples;Min_cycle;Max_cycle;Signal;HPM_P1;HPM_P2
2022/02/07 00:00:46;;;;;;;;;;;;;;;0.83;87.82;98959.24;1747693;81;21072;-74
2022/02/07 00:03:31;;;;;;;26.45;12.53;;;;;;;0.83;88.73;98953.21;1749529;81;20175;-74
2022/02/07 00:05:48;;;;;;;28.23;12.78;;;;;;;0.81;87.50;98949.78;1746447;81;21080;-73
2022/02/07 00:08:15;;;;;;;23.52;12.07;;;;;;;0.82;87.31;98948.89;1743342;81;21140;-74
2022/02/07 00:10:42;;;;;;;24.98;12.60;;;;;;;0.81;86.16;98951.08;1744586;81;21108;-74
2022/02/07 00:13:11;;;;;;;21.65;10.15;;;;;;;0.82;86.89;98943.27;1744153;81;21440;-73
2022/02/07 00:15:37;;;;;;;18.80;10.23;;;;;;;0.81;85.77;98935.53;1747856;81;21533;-74
2022/02/07 00:18:05;;;;;;;20.57;10.65;;;;;;;0.80;86.08;98945.02;1747281;81;21040;-75
2022/02/07 00:20:35;;;;;;;20.60;10.33;;;;;;;0.79;86.52;98943.32;1741216;81;22081;-73
2022/02/07 00:23:01;;;;;;;16.65;9.15;;;;;;;0.77;86.44;98937.75;1746825;81;21185;-75
2022/02/07 00:25:30;;;;;;;19.32;9.73;;;;;;;0.73;87.05;98925.27;1745588;81;21041;-75
2022/02/07 00:27:56;;;;;;;17.50;10.15;;;;;;;0.68;87.17;98928.83;1743957;81;21120;-74
2022/02/07 00:30:22;;;;;;;21.23;10.03;;;;;;;0.62;87.39;98924.17;1717731;83;21051;-73
2022/02/07 00:32:54;;;;;;;19.82;10.28;;;;;;;0.58;87.46;98925.09;1724508;83;21137;-71
2022/02/07 00:35:23;;;;;;;21.87;10.68;;;;;;;0.56;87.94;98922.96;1734658;82;21057;-74
2022/02/07 00:37:51;;;;;;;18.75;9.98;;;;;;;0.53;88.34;98920.43;1730362;82;21034;-73
2022/02/07 00:42:56;;;;;;;;;;;;;;;0.49;89.35;98905.81;1738239;82;21085;-72
2022/02/07 00:45:39;;;;;;;19.87;9.93;;;;;;;0.49;88.92;98904.52;1734517;80;21120;-72
2022/02/07 00:48:00;;;;;;;21.10;10.50;;;;;;;0.50;89.04;98901.48;1693443;84;21120;-71
2022/02/07 00:50:21;;;;;;;24.92;10.88;;;;;;;0.52;88.87;98903.16;1730454;82;21034;-71
2022/02/07 00:52:48;;;;;;;22.17;10.23;;;;;;;0.50;88.36;98894.55;1733755;82;21207;-72
2022/02/07 00:55:15;;;;;;;21.75;10.82;;;;;;;0.52;88.41;98896.69;1732436;82;21186;-72
2022/02/07 00:57:41;;;;;;;21.25;10.32;;;;;;;0.53;88.10;98897.11;1732695;82;22189;-73
2022/02/07 01:00:10;;;;;;;20.40;10.40;;;;;;;0.55;88.57;98890.17;1731214;82;21006;-72
2022/02/07 01:02:39;;;;;;;21.52;10.03;;;;;;;0.55;87.55;98881.52;1728535;82;21042;-74
2022/02/07 01:05:07;;;;;;;19.55;10.50;;;;;;;0.58;88.05;98881.50;1732488;82;21073;-72
2022/02/07 01:07:34;;;;;;;19.37;9.43;;;;;;;0.59;87.78;98880.16;1734796;82;21041;-71
2022/02/07 01:10:01;;;;;;;19.00;10.45;;;;;;;0.59;87.97;98877.56;1725731;82;21496;-73
2022/02/07 01:53:20;;;;;;;18.48;9.08;;;;;;;0.82;88.76;98773.95;1716925;82;21016;-73
2022/02/07 01:55:42;;;;;;;16.37;8.58;;;;;;;0.83;88.34;98770.49;1724300;82;21045;-72
2022/02/07 01:58:10;;;;;;;17.17;8.68;;;;;;;0.83;87.90;98764.86;1736711;82;21562;-73
2022/02/07 02:00:40;;;;;;;14.85;7.78;;;;;;;0.84;87.50;98756.63;1738913;82;21030;-70
2022/02/07 02:03:10;;;;;;;14.25;7.72;;;;;;;0.85;86.74;98760.92;1735014;82;21110;-73
2022/02/07 02:05:44;;;;;;;18.67;9.60;;;;;;;0.86;86.73;98757.46;1691312;84;21208;-73
2022/02/07 02:08:22;;;;;;;16.32;8.73;;;;;;;0.91;87.00;98756.92;1734362;80;21104;-70
2022/02/07 02:10:54;;;;;;;14.95;8.03;;;;;;;0.92;87.32;98745.69;1744761;81;21085;-72
2022/02/07 02:13:26;;;;;;;18.55;8.13;;;;;;;0.92;87.40;98739.20;1733664;81;21080;-73
2022/02/07 02:16:00;;;;;;;15.95;7.33;;;;;;;0.95;87.87;98739.13;1732465;80;21162;-73
2022/02/07 02:38:07;;;;;;;17.00;8.23;;;;;;;0.97;85.66;98715.33;1736188;82;21101;-71
2022/02/07 02:45:39;;;;;;;17.73;8.73;;;;;;;1.00;84.60;98717.00;1722417;82;21078;-72
2022/02/07 02:48:22;;;;;;;18.70;9.23;;;;;;;1.02;85.88;98719.13;1730600;82;21015;-73
2022/02/07 02:50:48;;;;;;;15.45;7.37;;;;;;;1.00;85.39;98705.34;1741600;80;21092;-73
2022/02/07 02:53:14;;;;;;;19.23;7.83;;;;;;;1.02;84.78;98714.78;1747045;81;21656;-73
2022/02/07 02:55:43;;;;;;;17.55;8.68;;;;;;;1.01;85.16;98714.39;1744187;81;21038;-72
2022/02/07 02:58:13;;;;;;;19.45;8.88;;;;;;;1.04;85.20;98709.12;1749039;81;21021;-73
2022/02/07 03:00:43;;;;;;;16.95;8.93;;;;;;;1.04;84.19;98703.94;1746884;81;21049;-73
2022/02/07 03:03:16;;;;;;;17.67;8.90;;;;;;;1.04;84.43;98697.91;1737484;81;21084;-72
2022/02/07 03:05:45;;;;;;;17.52;9.08;;;;;;;1.06;84.62;98689.66;1744819;81;21061;-73
2022/02/07 03:08:13;;;;;;;17.67;9.25;;;;;;;1.07;84.55;98682.73;1743427;81;21146;-72
2022/02/07 03:10:47;;;;;;;17.75;8.55;;;;;;;1.08;84.43;98683.13;1745130;81;21033;-73
2022/02/07 03:13:16;;;;;;;12.88;7.87;;;;;;;1.07;84.21;98680.98;1741531;81;21106;-73
2022/02/07 03:18:27;;;;;;;19.60;9.73;;;;;;;1.11;84.43;98676.59;1744343;81;21030;-76
2022/02/07 03:20:54;;;;;;;17.60;7.53;;;;;;;1.11;85.09;98679.19;1747529;81;21193;-76
2022/02/07 03:23:22;;;;;;;19.62;8.00;;;;;;;1.12;85.75;98678.29;1745576;81;21080;-76
2022/02/07 03:25:49;;;;;;;13.55;7.72;;;;;;;1.11;84.19;98684.38;1743548;81;21093;-77
2022/02/07 03:28:17;;;;;;;12.50;6.95;;;;;;;1.13;84.74;98687.76;1743651;81;21605;-76
2022/02/07 03:30:45;;;;;;;11.80;6.62;;;;;;;1.11;85.23;98681.78;1747530;81;21103;-77
2022/02/07 03:33:12;;;;;;;13.65;7.90;;;;;;;1.10;85.88;98677.47;1747431;81;21483;-75
2022/02/07 03:35:40;;;;;;;15.15;7.40;;;;;;;1.08;87.15;98681.83;1745044;81;21056;-75
2022/02/07 03:38:08;;;;;;;19.48;7.90;;;;;;;1.04;87.80;98676.72;1744080;81;21049;-75
2022/02/07 03:40:36;;;;;;;16.20;8.38;;;;;;;0.97;88.60;98669.97;1750271;81;21061;-76
2022/02/07 03:43:03;;;;;;;15.23;8.78;;;;;;;0.95;89.48;98665.25;1744702;81;21136;-77
2022/02/07 03:45:31;;;;;;;14.75;9.03;;;;;;;0.94;89.58;98668.71;1744760;81;21164;-75
2022/02/07 03:48:00;;;;;;;17.62;8.85;;;;;;;0.92;89.58;98655.38;1744683;81;21114;-76
2022/02/07 03:50:29;;;;;;;15.90;9.23;;;;;;;0.92;89.73;98661.44;1739959;81;21092;-75
2022/02/07 03:52:56;;;;;;;19.25;9.98;;;;;;;0.94;90.78;98653.61;1735968;82;22104;-75
2022/02/07 03:55:24;;;;;;;17.50;9.03;;;;;;;0.93;90.38;98657.95;1734096;82;21097;-76
2022/02/07 03:57:51;;;;;;;16.07;9.25;;;;;;;0.93;90.48;98643.69;1734656;82;21299;-75
2022/02/07 04:00:18;;;;;;;20.23;10.18;;;;;;;0.96;90.80;98646.66;1737246;82;21566;-74
2022/02/07 04:02:49;;;;;;;16.62;9.70;;;;;;;0.96;91.44;98634.55;1731829;82;21094;-73
2022/02/07 04:05:42;;;;;;;21.50;10.63;;;;;;;1.00;91.85;98635.34;1726695;82;21386;-73
2022/02/07 04:07:58;;;;;;;21.07;10.03;;;;;;;1.00;91.75;98631.00;1729691;82;21299;-73
2022/02/07 04:10:27;;;;;;;23.05;11.75;;;;;;;1.03;90.32;98628.33;1733060;82;21468;-73
2022/02/07 04:13:01;;;;;;;20.35;12.85;;;;;;;1.04;90.34;98615.80;1730281;82;21119;-72
2022/02/07 04:15:27;;;;;;;;;;;;;;;1.07;89.87;98611.44;1739068;82;21127;-72
2022/02/07 04:18:00;;;;;;;21.65;11.78;;;;;;;1.07;88.40;98616.16;1701477;83;20152;-74
2022/02/07 04:20:23;;;;;;;19.17;11.15;;;;;;;1.08;89.48;98617.02;1738752;80;21021;-75
2022/02/07 04:22:49;;;;;;;19.12;10.55;;;;;;;1.10;88.83;98613.95;1736994;81;21523;-75
2022/02/07 04:25:33;;;;;;;21.00;11.03;;;;;;;1.10;89.12;98604.87;1736720;81;21072;-72
2022/02/07 04:28:02;;;;;;;19.32;11.00;;;;;;;1.14;90.04;98614.28;1735263;81;21522;-72
2022/02/07 04:30:32;;;;;;;16.70;9.40;;;;;;;1.14;89.46;98612.54;1734341;80;21125;-71
2022/02/07 04:32:59;;;;;;;21.30;10.72;;;;;;;1.13;89.22;98603.07;1733074;82;21081;-70
2022/02/07 04:35:26;;;;;;;23.70;11.97;;;;;;;1.15;89.47;98605.61;1728692;82;21787;-72
2022/02/07 04:37:52;;;;;;;22.27;9.98;;;;;;;1.15;89.41;98597.83;1731588;82;21078;-72
2022/02/07 04:40:19;;;;;;;15.50;9.98;;;;;;;1.13;87.98;98598.30;1737385;82;21023;-71
2022/02/07 04:42:46;;;;;;;18.15;10.20;;;;;;;1.13;88.55;98594.41;1737254;82;21572;-71
2022/02/07 04:48:37;;;;;;;18.05;9.53;;;;;;;1.12;86.35;98587.54;1735525;81;21346;-73
2022/02/07 04:50:49;;;;;;;17.02;8.80;;;;;;;1.10;85.79;98582.38;1731664;81;21511;-72
2022/02/07 04:53:36;;;;;;;15.28;7.87;;;;;;;1.10;85.66;98579.78;1731851;81;21073;-71
2022/02/07 04:56:18;;;;;;;16.07;7.67;;;;;;;1.07;84.73;98575.98;1733464;81;21066;-72
2022/02/07 04:58:54;;;;;;;21.35;9.28;;;;;;;1.08;84.47;98576.37;1732999;82;21046;-71
2022/02/07 05:03:58;;;;;;;12.98;7.50;;;;;;;1.09;84.18;98583.28;1729067;82;21078;-72
2022/02/07 05:14:40;;;;;;;13.58;8.00;;;;;;;1.11;82.96;98579.36;1730799;81;21341;-71
2022/02/07 05:17:08;;;;;;;12.75;6.37;;;;;;;1.13;83.34;98580.16;1734041;81;21050;-71
2022/02/07 05:19:42;;;;;;;12.47;7.75;;;;;;;1.13;82.60;98581.45;1729236;82;21027;-72
2022/02/07 05:22:30;;;;;;;11.35;6.55;;;;;;;1.14;82.58;98584.47;1733144;81;21052;-71
2022/02/07 05:25:15;;;;;;;16.73;7.80;;;;;;;1.16;83.32;98586.59;1729776;82;21072;-72
2022/02/07 05:27:46;;;;;;;13.68;7.10;;;;;;;1.18;83.55;98589.55;1734226;81;21139;-72
2022/02/07 05:31:41;;;;;;;16.37;8.20;;;;;;;1.22;82.91;98579.52;1825754;76;22570;-72
2022/02/07 05:34:09;;;;;;;17.23;9.33;;;;;;;1.18;83.75;98596.48;1766248;80;21080;-71
2022/02/07 05:36:44;;;;;;;20.23;9.95;;;;;;;1.17;85.11;98590.41;1770838;80;21538;-70
2022/02/07 05:39:20;;;;;;;13.85;7.60;;;;;;;1.16;85.74;98591.77;1777630;80;21060;-71
2022/02/07 05:41:51;;;;;;;12.68;6.75;;;;;;;1.10;86.14;98588.86;1778501;80;21127;-69
2022/02/07 05:44:19;;;;;;;16.73;7.92;;;;;;;1.08;87.03;98594.97;1729811;80;20993;-69
2022/02/07 05:46:57;;;;;;;15.50;8.70;;;;;;;1.07;87.66;98593.28;1763076;80;21696;-68
2022/02/07 05:49:31;;;;;;;17.50;8.83;;;;;;;1.03;89.00;98590.73;1736757;80;21132;-69
2022/02/07 05:52:08;;;;;;;16.87;9.38;;;;;;;1.04;90.16;98585.13;1775849;80;21071;-69
2022/02/07 05:54:39;;;;;;;19.32;8.85;;;;;;;0.98;92.55;98584.81;1775775;80;21125;-72
2022/02/07 05:57:08;;;;;;;16.02;8.80;;;;;;;0.94;94.28;98588.81;1767078;80;21541;-72
2022/02/07 05:59:39;;;;;;;17.57;9.63;;;;;;;0.87;97.37;98593.27;1772730;80;21611;-73
2022/02/07 06:02:13;;;;;;;18.12;9.83;;;;;;;0.84;98.60;98581.23;1776334;80;21089;-71
2022/02/07 06:04:41;;;;;;;18.40;9.38;;;;;;;0.84;100.00;98580.40;1779844;80;21132;-71
2022/02/07 06:07:07;;;;;;;20.50;9.58;;;;;;;0.81;100.00;98576.59;1775802;80;21101;-72
2022/02/07 06:09:34;;;;;;;20.10;9.85;;;;;;;0.79;100.00;98582.24;1784440;80;21079;-71
2022/02/07 06:12:01;;;;;;;18.98;10.08;;;;;;;0.79;100.00;98579.66;1766398;80;21568;-72
2022/02/07 06:14:29;;;;;;;17.85;9.13;;;;;;;0.81;100.00;98583.06;1762919;80;21070;-72
2022/02/07 06:16:56;;;;;;;21.87;9.13;;;;;;;0.80;100.00;98582.64;1767739;80;21563;-72
2022/02/07 06:19:24;;;;;;;18.37;9.98;;;;;;;0.79;100.00;98577.06;1766242;80;21091;-72
2022/02/07 06:21:52;;;;;;;23.00;11.05;;;;;;;0.83;100.00;98576.11;1780029;80;21034;-72
2022/02/07 06:24:18;;;;;;;20.10;11.40;;;;;;;0.84;100.00;98572.62;1771556;80;21595;-71
2022/02/07 06:26:45;;;;;;;21.45;11.35;;;;;;;0.87;100.00;98563.92;1784132;80;21130;-71
2022/02/07 06:29:13;;;;;;;20.02;11.15;;;;;;;0.90;100.00;98572.49;1773047;80;21026;-72
2022/02/07 06:31:42;;;;;;;24.95;12.35;;;;;;;0.90;100.00;98564.72;1773005;80;21039;-73
2022/02/07 06:34:08;;;;;;;27.75;10.90;;;;;;;0.92;100.00;98560.77;1776376;80;21091;-72
2022/02/07 06:36:36;;;;;;;20.05;11.03;;;;;;;0.91;100.00;98554.74;1775286;80;21051;-72
2022/02/07 06:39:04;;;;;;;21.62;12.33;;;;;;;0.93;100.00;98559.45;1771826;80;22718;-72
2022/02/07 06:41:32;;;;;;;27.48;13.30;;;;;;;0.95;100.00;98551.65;1783242;80;21562;-72
2022/02/07 06:44:01;;;;;;;23.00;11.33;;;;;;;0.96;100.00;98555.94;1773332;80;21066;-72
2022/02/07 06:46:29;;;;;;;21.80;11.12;;;;;;;0.95;100.00;98546.02;1777986;80;21008;-71
2022/02/07 06:48:57;;;;;;;20.15;11.12;;;;;;;0.96;100.00;98545.11;1780345;80;21060;-72
2022/02/07 06:51:23;;;;;;;23.87;11.35;;;;;;;0.98;100.00;98542.05;1749846;80;21962;-73
2022/02/07 06:53:52;;;;;;;23.85;11.43;;;;;;;1.01;100.00;98545.00;1781713;80;21047;-73
2022/02/07 06:56:20;;;;;;;22.82;10.58;;;;;;;1.02;100.00;98543.68;1745533;81;21149;-72
2022/02/07 06:58:48;;;;;;;22.35;11.73;;;;;;;1.05;100.00;98532.38;1782127;80;21004;-74
2022/02/07 07:01:17;;;;;;;28.98;14.65;;;;;;;1.08;100.00;98539.23;1780872;80;21089;-72
2022/02/07 07:03:45;;;;;;;24.72;14.45;;;;;;;1.09;100.00;98536.61;1782345;80;22187;-72
2022/02/07 07:06:13;;;;;;;20.55;11.93;;;;;;;1.10;100.00;98540.89;1769362;80;21044;-73
2022/02/07 07:08:46;;;;;;;26.35;13.55;;;;;;;1.11;100.00;98530.95;1781701;80;21083;-72
2022/02/07 07:11:11;;;;;;;27.60;13.55;;;;;;;1.13;100.00;98546.03;1784819;80;21150;-72
2022/02/07 07:13:43;;;;;;;28.07;12.85;;;;;;;1.13;100.00;98555.10;1785107;80;21313;-73
2022/02/07 07:18:50;;;;;;;24.20;11.50;;;;;;;1.17;100.00;98566.23;1785338;79;20979;-74
2022/02/07 07:21:17;;;;;;;22.70;12.15;;;;;;;1.17;100.00;98569.67;1775049;80;21685;-67
2022/02/07 07:23:49;;;;;;;29.30;13.05;;;;;;;1.17;100.00;98571.42;1771160;80;21035;-73
2022/02/07 07:26:16;;;;;;;21.85;11.55;;;;;;;1.19;100.00;98561.87;1780209;80;21498;-71
2022/02/07 07:28:43;;;;;;;24.70;12.53;;;;;;;1.18;100.00;98566.66;1786421;80;21455;-70
2022/02/07 07:31:12;;;;;;;26.40;13.50;;;;;;;1.17;100.00;98563.64;1773291;79;21049;-71
2022/02/07 07:33:42;;;;;;;26.48;14.00;;;;;;;1.15;100.00;98553.75;1762910;80;21125;-72
2022/02/07 07:36:11;;;;;;;30.15;15.15;;;;;;;1.15;100.00;98552.45;1774409;80;21045;-70
2022/02/07 07:38:39;;;;;;;29.12;13.78;;;;;;;1.16;100.00;98547.23;1758663;80;21618;-70
2022/02/07 07:41:07;;;;;;;32.10;15.95;;;;;;;1.18;100.00;98548.51;1764633;80;21111;-68
2022/02/07 07:43:37;;;;;;;33.53;18.32;;;;;;;1.15;100.00;98541.66;1764706;80;21101;-66
2022/02/07 07:46:24;;;;;;;32.38;17.32;;;;;;;1.14;100.00;98541.69;1717094;80;21034;-67
2022/02/07 07:49:07;;;;;;;29.92;15.23;;;;;;;1.14;100.00;98541.23;1764235;80;21559;-67
2022/02/07 07:51:56;;;;;;;32.33;16.35;;;;;;;1.19;100.00;98551.05;1759052;80;20999;-67
2022/02/07 08:02:36;;;;;;;36.77;19.70;;;;;;;1.30;100.00;98528.74;1768599;80;21588;-67
2022/02/07 08:05:15;;;;;;;31.27;17.40;;;;;;;1.33;100.00;98527.36;1768237;80;21084;-67
2022/02/07 08:07:38;;;;;;;31.27;18.02;;;;;;;1.31;100.00;98520.09;1765808;80;21135;-67
2022/02/07 08:12:47;;;;;;;26.00;13.43;;;;;;;1.41;100.00;98522.84;1758906;80;21046;-68
2022/02/07 08:15:14;;;;;;;27.25;14.95;;;;;;;1.45;100.00;98515.39;1772922;79;21149;-67
2022/02/07 08:17:40;;;;;;;27.48;14.07;;;;;;;1.53;100.00;98523.42;1755445;80;21133;-68
2022/02/07 08:20:09;;;;;;;25.35;14.20;;;;;;;1.56;100.00;98525.92;1769983;80;21983;-67
2022/02/07 08:22:36;;;;;;;25.17;13.43;;;;;;;1.57;100.00;98532.83;1732222;82;21092;-67
2022/02/07 08:25:03;;;;;;;27.17;14.23;;;;;;;1.65;100.00;98534.31;1764848;80;21103;-66
2022/02/07 08:27:31;;;;;;;27.10;12.80;;;;;;;1.71;100.00;98532.47;1772655;80;21548;-67
2022/02/07 08:29:58;;;;;;;30.97;13.62;;;;;;;1.73;100.00;98534.12;1765001;80;21123;-66
2022/02/07 08:32:24;;;;;;;24.25;13.28;;;;;;;1.74;100.00;98532.38;1763018;80;22078;-67
2022/02/07 08:34:52;;;;;;;26.90;14.63;;;;;;;1.73;100.00;98531.53;1768767;80;21042;-67
2022/02/07 08:37:19;;;;;;;26.15;12.58;;;;;;;1.79;100.00;98524.02;1732887;82;21039;-67
2022/02/07 08:39:45;;;;;;;26.55;12.78;;;;;;;1.78;100.00;98528.36;1733532;82;21520;-66
2022/02/07 08:42:13;;;;;;;26.70;12.65;;;;;;;1.75;100.00;98522.39;1736413;82;21098;-66
2022/02/07 08:44:40;;;;;;;26.17;12.90;;;;;;;1.72;100.00;98519.43;1767496;80;21541;-68
2022/02/07 08:47:06;;;;;;;26.60;13.28;;;;;;;1.67;100.00;98513.52;1764593;80;21038;-68
2022/02/07 08:49:33;;;;;;;22.27;11.85;;;;;;;1.69;100.00;98515.63;1769909;80;21557;-69
2022/02/07 08:52:05;;;;;;;27.55;12.43;;;;;;;1.72;100.00;98517.29;1771852;80;21060;-70
2022/02/07 08:54:33;;;;;;;26.07;13.10;;;;;;;1.68;100.00;98517.84;1770294;80;22104;-70
2022/02/07 08:57:14;;;;;;;19.77;10.85;;;;;;;1.72;100.00;98510.34;1773605;80;21144;-70
2022/02/07 08:59:40;;;;;;;20.97;9.48;;;;;;;1.71;100.00;98517.74;1771610;80;21006;-70
2022/02/07 09:04:53;;;;;;;24.87;10.08;;;;;;;1.66;100.00;98504.05;1764967;80;21045;-70
2022/02/07 09:07:25;;;;;;;21.20;11.08;;;;;;;1.67;100.00;98497.95;1773206;80;21030;-69
2022/02/07 09:09:46;;;;;;;24.47;11.55;;;;;;;1.71;100.00;98499.58;1761476;78;21125;-70
2022/02/07 09:12:13;;;;;;;20.85;10.28;;;;;;;1.74;100.00;98499.48;1777104;80;21058;-70
2022/02/07 09:14:56;;;;;;;30.60;10.08;;;;;;;1.74;100.00;98507.27;1773355;80;21102;-71
2022/02/07 09:17:11;;;;;;;21.02;10.80;;;;;;;1.80;100.00;98498.03;1769278;80;21062;-70
2022/02/07 09:19:39;;;;;;;22.80;11.35;;;;;;;1.84;100.00;98502.67;1775053;80;21023;-70
2022/02/07 09:22:05;;;;;;;26.77;11.38;;;;;;;1.85;100.00;98505.23;1746079;80;21784;-70
2022/02/07 09:24:33;;;;;;;20.10;10.10;;;;;;;1.85;100.00;98507.83;1772594;80;21066;-70
2022/02/07 09:26:59;;;;;;;20.17;10.60;;;;;;;1.73;100.00;98504.28;1769241;80;21103;-69
2022/02/07 09:29:26;;;;;;;24.40;10.98;;;;;;;1.74;100.00;98507.27;1777447;80;21572;-69
2022/02/07 09:31:52;;;;;;;21.10;11.00;;;;;;;1.77;100.00;98495.52;1769588;80;22333;-70
2022/02/07 09:34:19;;;;;;;23.45;11.80;;;;;;;1.77;100.00;98495.52;1769512;80;21753;-69
2022/02/07 09:36:45;;;;;;;23.95;13.20;;;;;;;1.79;100.00;98495.01;1764169;80;20989;-69
2022/02/07 09:39:12;;;;;;;21.40;10.45;;;;;;;1.85;100.00;98483.17;1772086;80;21035;-69
2022/02/07 09:41:41;;;;;;;27.20;11.88;;;;;;;1.87;100.00;98490.47;1772591;80;21680;-70
2022/02/07 09:44:08;;;;;;;29.02;13.28;;;;;;;1.86;100.00;98487.48;1762248;80;21037;-69
2022/02/07 09:46:43;;;;;;;24.32;12.43;;;;;;;1.93;100.00;98487.28;1772032;80;21826;-69
2022/02/07 09:49:09;;;;;;;23.70;11.85;;;;;;;1.98;100.00;98486.70;1756757;80;21025;-72
2022/02/07 09:51:36;;;;;;;20.48;10.38;;;;;;;1.97;100.00;98487.61;1773432;80;21260;-70
2022/02/07 09:54:02;;;;;;;22.85;11.70;;;;;;;2.01;100.00;98481.45;1771672;80;21003;-71
2022/02/07 09:56:29;;;;;;;25.52;11.68;;;;;;;2.02;100.00;98477.94;1766413;80;21019;-70
2022/02/07 09:58:56;;;;;;;19.05;11.15;;;;;;;2.02;100.00;98468.39;1771712;80;21140;-70
2022/02/07 10:01:29;;;;;;;27.05;14.30;;;;;;;2.05;100.00;98477.88;1775024;80;21523;-70
2022/02/07 10:04:02;;;;;;;24.40;12.90;;;;;;;2.09;100.00;98475.14;1765742;80;21058;-70
2022/02/07 10:09:16;;;;;;;30.55;13.90;;;;;;;2.13;100.00;98477.19;1774147;80;21039;-71
2022/02/07 10:11:48;;;;;;;24.98;13.65;;;;;;;2.21;100.00;98483.02;1763930;80;21551;-70
2022/02/07 10:14:16;;;;;;;26.93;12.73;;;;;;;2.45;100.00;98479.27;1775671;80;21562;-70
2022/02/07 10:19:29;;;;;;;24.40;11.70;;;;;;;2.54;100.00;98491.98;1768632;80;21085;-70
2022/02/07 10:22:01;;;;;;;20.08;11.48;;;;;;;2.64;100.00;98488.64;1775923;80;21518;-71
2022/02/07 10:38:56;;;;;;;23.38;11.38;;;;;;;2.82;100.00;98505.42;1730843;80;21176;-69
2022/02/07 10:41:59;;;;;;;29.02;12.55;;;;;;;2.80;100.00;98509.36;1729596;80;21052;-70
2022/02/07 10:47:14;;;;;;;33.25;14.60;;;;;;;2.72;100.00;98509.61;1726463;81;21054;-70
2022/02/07 10:49:35;;;;;;;29.87;14.00;;;;;;;2.69;100.00;98507.55;1728262;81;21099;-71
2022/02/07 10:52:04;;;;;;;23.80;13.48;;;;;;;2.73;100.00;98512.59;1742909;80;21152;-69
2022/02/07 10:54:32;;;;;;;27.13;13.28;;;;;;;2.73;100.00;98513.89;1751733;80;26293;-69
2022/02/07 10:57:05;;;;;;;24.32;12.80;;;;;;;2.79;100.00;98508.13;1759268;80;21064;-69
2022/02/07 10:59:30;;;;;;;28.10;12.43;;;;;;;2.85;100.00;98504.02;1753737;80;21013;-70
2022/02/07 11:04:47;;;;;;;26.25;12.98;;;;;;;2.84;100.00;98504.93;1735741;80;21191;-70
2022/02/07 11:07:11;;;;;;;29.15;13.20;;;;;;;2.84;100.00;98507.07;1746708;80;21068;-70
2022/02/07 11:10:01;;;;;;;26.62;13.75;;;;;;;2.77;100.00;98512.06;1753317;80;21055;-69
2022/02/07 11:17:31;;;;;;;23.45;12.10;;;;;;;2.59;100.00;98496.58;1747791;80;21576;-69
2022/02/07 11:19:58;;;;;;;27.75;13.32;;;;;;;2.59;100.00;98496.58;1748204;80;21115;-69
2022/02/07 11:22:43;;;;;;;25.48;11.08;;;;;;;2.50;100.00;98480.82;1707638;80;21484;-69
2022/02/07 11:27:59;;;;;;;28.50;13.60;;;;;;;2.47;100.00;98478.33;1750190;80;20996;-69
2022/02/07 11:30:49;;;;;;;24.23;12.07;;;;;;;2.47;100.00;98477.03;1749403;80;21129;-70
2022/02/07 11:33:50;;;;;;;32.13;14.38;;;;;;;2.43;100.00;98475.88;1766545;80;21029;-71
2022/02/07 11:36:15;;;;;;;28.30;13.72;;;;;;;2.48;100.00;98468.77;1771996;80;21102;-71
2022/02/07 11:39:13;;;;;;;23.38;11.33;;;;;;;2.47;100.00;98460.14;1769739;80;21054;-71
2022/02/07 11:42:09;;;;;;;29.12;14.23;;;;;;;2.43;100.00;98460.28;1769597;80;21654;-71
2022/02/07 11:44:47;;;;;;;29.80;14.35;;;;;;;2.43;100.00;98436.89;1763492;80;21086;-71
2022/02/07 11:47:31;;;;;;;31.02;14.43;;;;;;;2.43;100.00;98436.89;1771671;80;21137;-71
2022/02/07 11:50:02;;;;;;;33.10;15.25;;;;;;;2.42;100.00;98426.95;1770408;80;21040;-67
2022/02/07 11:52:30;;;;;;;;;;;;;;;2.47;100.00;98421.62;1779105;80;21052;-69
2022/02/07 11:55:07;;;;;;;32.73;17.20;;;;;;;2.50;100.00;98411.12;1770218;80;20156;-67
2022/02/07 11:57:37;;;;;;;32.78;16.20;;;;;;;2.47;100.00;98402.13;1770384;80;21117;-68
2022/02/07 12:00:20;;;;;;;31.23;16.00;;;;;;;2.53;100.00;98409.70;1764174;80;21070;-67
2022/02/07 12:02:49;;;;;;;26.95;13.78;;;;;;;2.51;100.00;98401.14;1757202;80;21029;-68
2022/02/07 12:05:21;;;;;;;28.73;14.47;;;;;;;2.60;100.00;98411.23;1756140;80;21561;-68
2022/02/07 12:08:09;;;;;;;34.67;16.62;;;;;;;2.57;100.00;98420.88;1759313;80;21463;-68
2022/02/07 12:10:38;;;;;;;22.67;12.00;;;;;;;2.57;100.00;98420.88;1769004;80;21139;-68
2022/02/07 12:13:32;;;;;;;31.50;15.13;;;;;;;2.59;100.00;98421.67;1756974;80;21571;-68
2022/02/07 12:16:12;;;;;;;71.55;31.62;;;;;;;2.57;100.00;98419.11;1731651;82;21376;-69
2022/02/07 12:18:39;;;;;;;28.60;13.78;;;;;;;2.52;100.00;98426.21;1727578;82;21065;-70
2022/02/07 12:21:16;;;;;;;32.63;15.60;;;;;;;2.57;100.00;98432.56;1699493;82;21089;-69
2022/02/07 12:23:43;;;;;;;30.30;16.50;;;;;;;2.60;100.00;98438.53;1707647;83;21351;-69
2022/02/07 12:26:16;;;;;;;26.35;12.35;;;;;;;2.55;100.00;98467.69;1708073;82;21065;-69
2022/02/07 12:28:47;;;;;;;56.00;25.95;;;;;;;2.55;100.00;98467.69;1775288;79;22082;-69
2022/02/07 12:31:21;;;;;;;40.23;18.65;;;;;;;2.76;100.00;98473.11;1760697;80;21038;-68
2022/02/07 12:34:12;;;;;;;26.50;13.85;;;;;;;3.26;100.00;98479.71;1753556;80;21041;-68
2022/02/07 12:36:37;;;;;;;32.15;17.50;;;;;;;3.90;98.21;98483.97;1767208;80;22323;-68
2022/02/07 12:39:13;;;;;;;27.32;13.83;;;;;;;4.66;97.41;98472.86;1744939;80;21014;-69
2022/02/07 12:41:40;;;;;;;31.15;14.63;;;;;;;4.95;91.13;98466.95;1757955;80;21122;-70
2022/02/07 12:44:08;;;;;;;37.65;18.67;;;;;;;5.03;90.83;98462.24;1679378;83;21612;-69
2022/02/07 12:46:38;;;;;;;26.80;13.38;;;;;;;5.17;91.19;98465.12;1749252;80;21092;-68
2022/02/07 12:49:11;;;;;;;42.23;21.42;;;;;;;5.26;88.39;98466.05;1740532;80;21129;-69
2022/02/07 12:51:42;;;;;;;54.77;24.90;;;;;;;5.49;92.90;98462.92;1749116;81;21083;-69
2022/02/07 12:54:11;;;;;;;32.93;16.45;;;;;;;5.56;93.37;98469.57;1760775;80;21068;-69
2022/02/07 12:56:39;;;;;;;57.03;30.02;;;;;;;5.67;88.26;98471.73;1762727;80;21076;-69
2022/02/07 12:59:07;;;;;;;38.83;19.60;;;;;;;5.78;99.70;98471.27;1751885;80;21056;-69
2022/02/07 13:01:36;;;;;;;32.25;16.52;;;;;;;5.93;91.50;98472.34;1769817;80;21121;-70
2022/02/07 13:04:09;;;;;;;54.93;26.35;;;;;;;6.26;90.69;98470.02;1739642;80;21061;-70
2022/02/07 13:06:40;;;;;;;27.22;15.43;;;;;;;6.40;95.02;98467.61;1762079;80;21042;-70
2022/02/07 13:09:31;;;;;;;35.55;19.50;;;;;;;6.52;84.63;98471.41;1765579;80;21070;-69
2022/02/07 13:14:50;;;;;;;30.25;15.60;;;;;;;6.60;93.58;98475.84;1754762;78;21886;-70
2022/02/07 13:17:22;;;;;;;38.70;16.73;;;;;;;6.63;83.23;98491.84;1770456;80;21104;-70
2022/02/07 13:19:50;;;;;;;52.83;24.67;;;;;;;6.69;86.25;98491.53;1773458;80;21069;-72
2022/02/07 13:22:18;;;;;;;31.93;14.53;;;;;;;6.48;90.59;98490.30;1749066;80;21099;-70
2022/02/07 13:24:46;;;;;;;65.78;31.65;;;;;;;6.25;83.79;98499.67;1761457;80;21620;-70
2022/02/07 13:27:15;;;;;;;44.10;21.87;;;;;;;6.07;100.00;98494.38;1774813;80;21088;-69
2022/02/07 13:29:44;;;;;;;40.40;20.17;;;;;;;5.83;88.04;98498.03;1754547;79;21013;-71
2022/02/07 13:32:17;;;;;;;66.25;29.32;;;;;;;5.81;93.22;98505.09;1715232;82;21056;-70
2022/02/07 13:34:46;;;;;;;37.03;17.65;;;;;;;5.76;98.81;98517.50;1735218;81;21626;-71
2022/02/07 13:37:27;;;;;;;49.75;24.65;;;;;;;5.55;88.90;98522.73;1738218;82;21565;-71
2022/02/07 13:40:05;;;;;;;59.08;28.47;;;;;;;5.44;97.75;98528.39;1738059;82;21789;-72
2022/02/07 13:42:38;;;;;;;;;;;;;;;5.34;99.57;98524.47;1777107;80;21111;-70
2022/02/07 13:45:16;;;;;;;33.42;18.62;;;;;;;5.30;94.87;98524.66;1780410;80;20223;-70
2022/02/07 13:47:46;;;;;;;45.60;22.25;;;;;;;5.22;98.64;98514.52;1735947;82;21305;-71
2022/02/07 13:50:16;;;;;;;31.70;17.05;;;;;;;4.97;94.92;98517.27;1720844;83;21112;-70
2022/02/07 13:52:45;;;;;;;54.55;25.00;;;;;;;4.84;95.75;98515.16;1713909;83;21109;-70
2022/02/07 13:55:19;;;;;;;55.98;27.52;;;;;;;4.73;100.00;98510.81;1775165;80;21651;-70
2022/02/07 13:57:57;;;;;;;35.55;17.60;;;;;;;4.52;96.19;98515.11;1756367;80;21129;-72